Ulman, Missouri
Current Conditions -  °F | °C
As of 2:35 PM on Friday 28 Nov 2014 (Local Time) from KAIZ Reporting Station
Clear Clear  
Wind Chill: 16°   Ceiling: Unl
Heat Index: 16°   Visibility: 10mi
Dew Point:   Wind: 15mph
Humidity: 36%   Direction: 200°SSW
Pressure: 29.9"   Gusts: 24mph
Location:  38.15°N, 92.44°W
Report Text: KAIZ 282035Z AUTO 20013G21KT 10SM CLR 16/01 A2990 RMK AO1
Loading
Personal Weather Stations






























Interactive Weather Map New forecast layout! Learn more

10-Day Weather Forecast

Advertisements
Track Severe Weather on mobile